sensor_id;sensor_type;location;lat;lon;timestamp;P1;durP1;ratioP1;P2;durP2;ratioP2
46493;SDS011;53214;49.314;6.280;2022-07-29T00:02:25;8.50;;;2.97;;
46493;SDS011;53214;49.314;6.280;2022-07-29T00:04:53;6.80;;;2.17;;
46493;SDS011;53214;49.314;6.280;2022-07-29T00:07:19;6.00;;;2.33;;
46493;SDS011;53214;49.314;6.280;2022-07-29T00:09:47;7.07;;;2.25;;
46493;SDS011;53214;49.314;6.280;2022-07-29T00:12:21;7.13;;;2.30;;
46493;SDS011;53214;49.314;6.280;2022-07-29T00:14:55;8.73;;;2.03;;
46493;SDS011;53214;49.314;6.280;2022-07-29T00:17:23;7.55;;;2.35;;
46493;SDS011;53214;49.314;6.280;2022-07-29T00:19:50;5.25;;;2.20;;
46493;SDS011;53214;49.314;6.280;2022-07-29T00:22:18;6.70;;;2.42;;
46493;SDS011;53214;49.314;6.280;2022-07-29T00:24:47;6.13;;;2.10;;
46493;SDS011;53214;49.314;6.280;2022-07-29T00:27:14;9.68;;;2.13;;
46493;SDS011;53214;49.314;6.280;2022-07-29T00:29:42;6.38;;;2.78;;
46493;SDS011;53214;49.314;6.280;2022-07-29T00:32:09;6.72;;;2.88;;
46493;SDS011;53214;49.314;6.280;2022-07-29T00:34:36;6.60;;;2.20;;
46493;SDS011;53214;49.314;6.280;2022-07-29T00:37:21;4.65;;;2.00;;
46493;SDS011;53214;49.314;6.280;2022-07-29T00:39:48;7.32;;;2.70;;
46493;SDS011;53214;49.314;6.280;2022-07-29T00:42:15;7.43;;;2.55;;
46493;SDS011;53214;49.314;6.280;2022-07-29T00:44:42;6.78;;;2.55;;
46493;SDS011;53214;49.314;6.280;2022-07-29T00:47:10;7.93;;;2.67;;
46493;SDS011;53214;49.314;6.280;2022-07-29T00:49:41;6.30;;;2.28;;
46493;SDS011;53214;49.314;6.280;2022-07-29T00:52:09;10.15;;;2.95;;
46493;SDS011;53214;49.314;6.280;2022-07-29T00:54:37;5.25;;;2.40;;
46493;SDS011;53214;49.314;6.280;2022-07-29T00:57:10;8.30;;;2.60;;
46493;SDS011;53214;49.314;6.280;2022-07-29T00:59:37;4.13;;;2.40;;
46493;SDS011;53214;49.314;6.280;2022-07-29T01:02:04;6.20;;;2.42;;
46493;SDS011;53214;49.314;6.280;2022-07-29T01:04:31;5.72;;;2.28;;
46493;SDS011;53214;49.314;6.280;2022-07-29T01:07:02;4.93;;;1.95;;
46493;SDS011;53214;49.314;6.280;2022-07-29T01:09:33;5.90;;;2.25;;
46493;SDS011;53214;49.314;6.280;2022-07-29T01:12:13;4.97;;;2.35;;
46493;SDS011;53214;49.314;6.280;2022-07-29T01:17:20;5.32;;;2.10;;
46493;SDS011;53214;49.314;6.280;2022-07-29T01:19:58;8.68;;;2.42;;
46493;SDS011;53214;49.314;6.280;2022-07-29T01:30:40;7.15;;;2.55;;
46493;SDS011;53214;49.314;6.280;2022-07-29T01:33:11;5.95;;;2.47;;
46493;SDS011;53214;49.314;6.280;2022-07-29T01:36:05;5.45;;;2.60;;
46493;SDS011;53214;49.314;6.280;2022-07-29T01:38:39;7.65;;;2.47;;
46493;SDS011;53214;49.314;6.280;2022-07-29T01:41:09;7.25;;;2.80;;
46493;SDS011;53214;49.314;6.280;2022-07-29T01:43:53;4.85;;;2.35;;
46493;SDS011;53214;49.314;6.280;2022-07-29T01:46:33;7.82;;;2.40;;
46493;SDS011;53214;49.314;6.280;2022-07-29T01:49:06;8.35;;;2.75;;
46493;SDS011;53214;49.314;6.280;2022-07-29T01:51:53;5.38;;;2.30;;
46493;SDS011;53214;49.314;6.280;2022-07-29T01:54:26;7.03;;;3.40;;
46493;SDS011;53214;49.314;6.280;2022-07-29T01:57:13;8.60;;;2.60;;
46493;SDS011;53214;49.314;6.280;2022-07-29T01:59:43;5.55;;;2.90;;
46493;SDS011;53214;49.314;6.280;2022-07-29T02:02:13;5.55;;;2.85;;
46493;SDS011;53214;49.314;6.280;2022-07-29T02:04:43;13.65;;;2.83;;
46493;SDS011;53214;49.314;6.280;2022-07-29T02:07:21;5.68;;;2.70;;
46493;SDS011;53214;49.314;6.280;2022-07-29T02:09:51;7.55;;;2.75;;
46493;SDS011;53214;49.314;6.280;2022-07-29T02:12:19;6.95;;;2.60;;
46493;SDS011;53214;49.314;6.280;2022-07-29T02:14:49;6.72;;;2.70;;
46493;SDS011;53214;49.314;6.280;2022-07-29T02:17:26;5.57;;;2.60;;
46493;SDS011;53214;49.314;6.280;2022-07-29T02:19:58;4.72;;;2.50;;
46493;SDS011;53214;49.314;6.280;2022-07-29T02:22:29;10.30;;;2.83;;
46493;SDS011;53214;49.314;6.280;2022-07-29T02:24:59;5.57;;;2.90;;
46493;SDS011;53214;49.314;6.280;2022-07-29T02:27:29;7.25;;;2.88;;
46493;SDS011;53214;49.314;6.280;2022-07-29T02:29:57;6.82;;;3.00;;
46493;SDS011;53214;49.314;6.280;2022-07-29T02:32:26;6.30;;;2.85;;
46493;SDS011;53214;49.314;6.280;2022-07-29T02:34:55;8.68;;;2.88;;
46493;SDS011;53214;49.314;6.280;2022-07-29T02:37:22;5.32;;;2.67;;
46493;SDS011;53214;49.314;6.280;2022-07-29T02:39:51;6.22;;;2.92;;
46493;SDS011;53214;49.314;6.280;2022-07-29T02:42:20;5.80;;;3.05;;
46493;SDS011;53214;49.314;6.280;2022-07-29T02:44:50;9.77;;;3.20;;
46493;SDS011;53214;49.314;6.280;2022-07-29T02:47:22;6.43;;;2.92;;
46493;SDS011;53214;49.314;6.280;2022-07-29T02:50:17;8.35;;;3.08;;
46493;SDS011;53214;49.314;6.280;2022-07-29T02:52:52;7.85;;;3.10;;
46493;SDS011;53214;49.314;6.280;2022-07-29T02:55:28;6.68;;;2.90;;
46493;SDS011;53214;49.314;6.280;2022-07-29T03:00:49;7.38;;;2.60;;
46493;SDS011;53214;49.314;6.280;2022-07-29T03:03:18;5.97;;;3.42;;
46493;SDS011;53214;49.314;6.280;2022-07-29T03:05:47;4.72;;;2.78;;
46493;SDS011;53214;49.314;6.280;2022-07-29T03:08:14;6.75;;;3.13;;
46493;SDS011;53214;49.314;6.280;2022-07-29T03:10:43;4.25;;;2.63;;
46493;SDS011;53214;49.314;6.280;2022-07-29T03:13:11;8.77;;;3.15;;
46493;SDS011;53214;49.314;6.280;2022-07-29T03:15:39;5.43;;;2.70;;
46493;SDS011;53214;49.314;6.280;2022-07-29T03:18:08;7.28;;;3.08;;
46493;SDS011;53214;49.314;6.280;2022-07-29T03:20:36;6.15;;;3.28;;
46493;SDS011;53214;49.314;6.280;2022-07-29T03:23:05;9.73;;;3.13;;
46493;SDS011;53214;49.314;6.280;2022-07-29T03:25:32;6.13;;;3.38;;
46493;SDS011;53214;49.314;6.280;2022-07-29T03:27:59;7.38;;;3.38;;
46493;SDS011;53214;49.314;6.280;2022-07-29T03:30:26;7.15;;;3.10;;
46493;SDS011;53214;49.314;6.280;2022-07-29T03:32:54;6.47;;;3.30;;
46493;SDS011;53214;49.314;6.280;2022-07-29T03:35:23;8.30;;;3.58;;
46493;SDS011;53214;49.314;6.280;2022-07-29T03:37:51;6.13;;;3.40;;
46493;SDS011;53214;49.314;6.280;2022-07-29T03:40:21;7.03;;;3.28;;
46493;SDS011;53214;49.314;6.280;2022-07-29T03:42:52;5.85;;;3.22;;
46493;SDS011;53214;49.314;6.280;2022-07-29T03:45:21;7.88;;;3.63;;
46493;SDS011;53214;49.314;6.280;2022-07-29T03:47:50;7.10;;;3.20;;
46493;SDS011;53214;49.314;6.280;2022-07-29T03:50:25;7.13;;;3.15;;
46493;SDS011;53214;49.314;6.280;2022-07-29T03:52:54;9.57;;;3.67;;
46493;SDS011;53214;49.314;6.280;2022-07-29T03:55:22;5.53;;;3.47;;
46493;SDS011;53214;49.314;6.280;2022-07-29T03:57:49;5.82;;;3.28;;
46493;SDS011;53214;49.314;6.280;2022-07-29T04:00:17;5.50;;;3.50;;
46493;SDS011;53214;49.314;6.280;2022-07-29T04:02:45;6.53;;;3.20;;
46493;SDS011;53214;49.314;6.280;2022-07-29T04:05:15;9.30;;;3.53;;
46493;SDS011;53214;49.314;6.280;2022-07-29T04:07:43;9.13;;;3.67;;
46493;SDS011;53214;49.314;6.280;2022-07-29T04:10:11;10.57;;;3.47;;
46493;SDS011;53214;49.314;6.280;2022-07-29T04:12:38;6.57;;;3.63;;
46493;SDS011;53214;49.314;6.280;2022-07-29T04:15:05;7.85;;;3.60;;
46493;SDS011;53214;49.314;6.280;2022-07-29T04:17:33;5.75;;;3.38;;
46493;SDS011;53214;49.314;6.280;2022-07-29T04:19:59;7.65;;;3.75;;
46493;SDS011;53214;49.314;6.280;2022-07-29T04:22:26;5.43;;;3.50;;
46493;SDS011;53214;49.314;6.280;2022-07-29T04:24:53;5.80;;;3.50;;
46493;SDS011;53214;49.314;6.280;2022-07-29T04:27:25;9.20;;;3.65;;
46493;SDS011;53214;49.314;6.280;2022-07-29T04:29:52;5.32;;;3.50;;
46493;SDS011;53214;49.314;6.280;2022-07-29T04:32:22;5.97;;;3.72;;
46493;SDS011;53214;49.314;6.280;2022-07-29T04:34:49;8.70;;;3.63;;
46493;SDS011;53214;49.314;6.280;2022-07-29T04:37:16;6.63;;;3.83;;
46493;SDS011;53214;49.314;6.280;2022-07-29T04:39:43;9.27;;;3.83;;
46493;SDS011;53214;49.314;6.280;2022-07-29T04:42:10;6.03;;;3.55;;
46493;SDS011;53214;49.314;6.280;2022-07-29T04:44:38;6.90;;;3.42;;
46493;SDS011;53214;49.314;6.280;2022-07-29T04:47:08;8.40;;;3.95;;
46493;SDS011;53214;49.314;6.280;2022-07-29T04:49:38;9.65;;;3.70;;
46493;SDS011;53214;49.314;6.280;2022-07-29T04:52:05;9.23;;;3.83;;
46493;SDS011;53214;49.314;6.280;2022-07-29T04:54:32;9.80;;;3.53;;
46493;SDS011;53214;49.314;6.280;2022-07-29T04:56:59;6.03;;;3.20;;
46493;SDS011;53214;49.314;6.280;2022-07-29T04:59:27;9.43;;;3.50;;
46493;SDS011;53214;49.314;6.280;2022-07-29T05:01:54;9.35;;;3.63;;
46493;SDS011;53214;49.314;6.280;2022-07-29T05:04:21;10.50;;;3.72;;
46493;SDS011;53214;49.314;6.280;2022-07-29T05:06:49;16.75;;;3.63;;
46493;SDS011;53214;49.314;6.280;2022-07-29T05:09:16;14.70;;;3.80;;
46493;SDS011;53214;49.314;6.280;2022-07-29T05:11:43;8.02;;;3.45;;
46493;SDS011;53214;49.314;6.280;2022-07-29T05:14:10;7.80;;;3.28;;
46493;SDS011;53214;49.314;6.280;2022-07-29T05:16:37;7.47;;;3.72;;
46493;SDS011;53214;49.314;6.280;2022-07-29T05:19:06;7.57;;;3.30;;
46493;SDS011;53214;49.314;6.280;2022-07-29T05:21:39;7.18;;;2.80;;
46493;SDS011;53214;49.314;6.280;2022-07-29T05:24:06;5.85;;;2.80;;
46493;SDS011;53214;49.314;6.280;2022-07-29T05:26:33;8.00;;;2.80;;
46493;SDS011;53214;49.314;6.280;2022-07-29T05:29:00;5.93;;;2.80;;
46493;SDS011;53214;49.314;6.280;2022-07-29T05:31:27;6.25;;;2.90;;
46493;SDS011;53214;49.314;6.280;2022-07-29T05:33:54;6.05;;;2.75;;
46493;SDS011;53214;49.314;6.280;2022-07-29T05:36:20;7.32;;;3.17;;
46493;SDS011;53214;49.314;6.280;2022-07-29T05:38:47;8.23;;;3.03;;
46493;SDS011;53214;49.314;6.280;2022-07-29T05:41:14;5.97;;;3.17;;
46493;SDS011;53214;49.314;6.280;2022-07-29T05:43:41;8.35;;;2.78;;
46493;SDS011;53214;49.314;6.280;2022-07-29T05:46:08;5.80;;;2.75;;
46493;SDS011;53214;49.314;6.280;2022-07-29T05:48:35;5.30;;;3.03;;
46493;SDS011;53214;49.314;6.280;2022-07-29T05:51:02;5.68;;;3.05;;
46493;SDS011;53214;49.314;6.280;2022-07-29T05:53:29;6.35;;;2.88;;
46493;SDS011;53214;49.314;6.280;2022-07-29T05:55:56;6.10;;;2.55;;
46493;SDS011;53214;49.314;6.280;2022-07-29T05:58:23;8.00;;;2.78;;
46493;SDS011;53214;49.314;6.280;2022-07-29T06:00:50;6.38;;;2.75;;
46493;SDS011;53214;49.314;6.280;2022-07-29T06:03:17;8.40;;;3.00;;
46493;SDS011;53214;49.314;6.280;2022-07-29T06:05:44;7.63;;;2.50;;
46493;SDS011;53214;49.314;6.280;2022-07-29T06:08:11;8.15;;;2.40;;
46493;SDS011;53214;49.314;6.280;2022-07-29T06:10:38;5.63;;;1.75;;
46493;SDS011;53214;49.314;6.280;2022-07-29T06:13:05;6.40;;;2.00;;
46493;SDS011;53214;49.314;6.280;2022-07-29T06:15:32;5.95;;;2.40;;
46493;SDS011;53214;49.314;6.280;2022-07-29T06:17:59;4.35;;;2.15;;
46493;SDS011;53214;49.314;6.280;2022-07-29T06:20:30;6.55;;;2.38;;
46493;SDS011;53214;49.314;6.280;2022-07-29T06:22:58;6.55;;;2.40;;
46493;SDS011;53214;49.314;6.280;2022-07-29T06:25:26;7.78;;;2.30;;
46493;SDS011;53214;49.314;6.280;2022-07-29T06:27:56;5.95;;;2.72;;
46493;SDS011;53214;49.314;6.280;2022-07-29T06:30:24;4.72;;;2.22;;
46493;SDS011;53214;49.314;6.280;2022-07-29T06:32:51;9.57;;;2.28;;
46493;SDS011;53214;49.314;6.280;2022-07-29T06:35:18;6.40;;;2.38;;
46493;SDS011;53214;49.314;6.280;2022-07-29T06:38:05;6.57;;;2.38;;
46493;SDS011;53214;49.314;6.280;2022-07-29T06:40:52;5.47;;;2.40;;
46493;SDS011;53214;49.314;6.280;2022-07-29T06:43:36;3.92;;;1.98;;
46493;SDS011;53214;49.314;6.280;2022-07-29T06:46:16;6.65;;;2.40;;
46493;SDS011;53214;49.314;6.280;2022-07-29T06:48:44;5.18;;;2.25;;
46493;SDS011;53214;49.314;6.280;2022-07-29T06:51:12;3.83;;;2.10;;
46493;SDS011;53214;49.314;6.280;2022-07-29T06:53:39;6.13;;;2.40;;
46493;SDS011;53214;49.314;6.280;2022-07-29T06:56:26;5.25;;;2.00;;
46493;SDS011;53214;49.314;6.280;2022-07-29T06:58:53;8.85;;;2.35;;
46493;SDS011;53214;49.314;6.280;2022-07-29T07:01:21;8.18;;;2.20;;
46493;SDS011;53214;49.314;6.280;2022-07-29T07:03:48;7.65;;;2.50;;
46493;SDS011;53214;49.314;6.280;2022-07-29T07:06:15;7.75;;;2.53;;
46493;SDS011;53214;49.314;6.280;2022-07-29T07:08:42;10.55;;;2.70;;
46493;SDS011;53214;49.314;6.280;2022-07-29T07:11:09;5.78;;;2.10;;
46493;SDS011;53214;49.314;6.280;2022-07-29T07:13:37;8.63;;;2.70;;
46493;SDS011;53214;49.314;6.280;2022-07-29T07:16:04;11.45;;;2.83;;
46493;SDS011;53214;49.314;6.280;2022-07-29T07:18:32;7.47;;;1.77;;
46493;SDS011;53214;49.314;6.280;2022-07-29T07:20:59;6.78;;;2.20;;
46493;SDS011;53214;49.314;6.280;2022-07-29T07:23:26;6.82;;;1.95;;
46493;SDS011;53214;49.314;6.280;2022-07-29T07:25:53;10.30;;;2.20;;
46493;SDS011;53214;49.314;6.280;2022-07-29T07:28:20;7.18;;;1.80;;
46493;SDS011;53214;49.314;6.280;2022-07-29T07:30:50;10.05;;;2.03;;
46493;SDS011;53214;49.314;6.280;2022-07-29T07:33:18;6.47;;;1.70;;
46493;SDS011;53214;49.314;6.280;2022-07-29T07:35:45;17.42;;;2.53;;
46493;SDS011;53214;49.314;6.280;2022-07-29T07:38:12;9.15;;;2.20;;
46493;SDS011;53214;49.314;6.280;2022-07-29T07:40:39;9.75;;;2.17;;
46493;SDS011;53214;49.314;6.280;2022-07-29T07:43:06;5.95;;;2.10;;
46493;SDS011;53214;49.314;6.280;2022-07-29T07:45:33;9.27;;;2.30;;
46493;SDS011;53214;49.314;6.280;2022-07-29T07:48:03;8.40;;;2.15;;
46493;SDS011;53214;49.314;6.280;2022-07-29T07:50:31;6.47;;;2.17;;
46493;SDS011;53214;49.314;6.280;2022-07-29T07:53:00;7.95;;;2.38;;
46493;SDS011;53214;49.314;6.280;2022-07-29T07:55:28;7.47;;;2.00;;
46493;SDS011;53214;49.314;6.280;2022-07-29T07:58:15;6.93;;;2.17;;
46493;SDS011;53214;49.314;6.280;2022-07-29T08:00:42;7.70;;;2.20;;
46493;SDS011;53214;49.314;6.280;2022-07-29T08:03:09;8.02;;;2.40;;
46493;SDS011;53214;49.314;6.280;2022-07-29T08:05:42;6.28;;;1.70;;
46493;SDS011;53214;49.314;6.280;2022-07-29T08:08:11;9.30;;;1.80;;
46493;SDS011;53214;49.314;6.280;2022-07-29T08:10:37;9.38;;;2.20;;
46493;SDS011;53214;49.314;6.280;2022-07-29T08:13:30;8.27;;;2.00;;
46493;SDS011;53214;49.314;6.280;2022-07-29T08:15:58;7.85;;;2.03;;
46493;SDS011;53214;49.314;6.280;2022-07-29T08:18:37;11.43;;;2.13;;
46493;SDS011;53214;49.314;6.280;2022-07-29T08:21:05;11.40;;;2.03;;
46493;SDS011;53214;49.314;6.280;2022-07-29T08:23:32;7.00;;;1.88;;
46493;SDS011;53214;49.314;6.280;2022-07-29T08:26:14;4.90;;;1.90;;
46493;SDS011;53214;49.314;6.280;2022-07-29T08:28:42;7.20;;;1.98;;
46493;SDS011;53214;49.314;6.280;2022-07-29T08:31:12;5.22;;;1.88;;
46493;SDS011;53214;49.314;6.280;2022-07-29T08:33:40;7.38;;;1.80;;
46493;SDS011;53214;49.314;6.280;2022-07-29T08:36:07;9.15;;;1.90;;
46493;SDS011;53214;49.314;6.280;2022-07-29T08:38:35;4.63;;;2.03;;
46493;SDS011;53214;49.314;6.280;2022-07-29T08:41:02;7.28;;;2.20;;
46493;SDS011;53214;49.314;6.280;2022-07-29T08:43:29;4.35;;;1.90;;
46493;SDS011;53214;49.314;6.280;2022-07-29T08:45:57;6.95;;;2.10;;
46493;SDS011;53214;49.314;6.280;2022-07-29T08:48:24;5.28;;;1.60;;
46493;SDS011;53214;49.314;6.280;2022-07-29T08:50:52;6.55;;;1.90;;
46493;SDS011;53214;49.314;6.280;2022-07-29T08:53:22;8.13;;;1.83;;
46493;SDS011;53214;49.314;6.280;2022-07-29T08:55:53;6.25;;;1.67;;
46493;SDS011;53214;49.314;6.280;2022-07-29T08:58:21;8.05;;;2.00;;
46493;SDS011;53214;49.314;6.280;2022-07-29T09:00:54;5.20;;;2.13;;
46493;SDS011;53214;49.314;6.280;2022-07-29T09:03:24;11.95;;;1.83;;
46493;SDS011;53214;49.314;6.280;2022-07-29T09:05:53;9.55;;;1.83;;
46493;SDS011;53214;49.314;6.280;2022-07-29T09:08:20;5.53;;;1.67;;
46493;SDS011;53214;49.314;6.280;2022-07-29T09:10:48;7.85;;;1.98;;
46493;SDS011;53214;49.314;6.280;2022-07-29T09:13:15;5.03;;;1.90;;
46493;SDS011;53214;49.314;6.280;2022-07-29T09:15:42;5.20;;;1.70;;
46493;SDS011;53214;49.314;6.280;2022-07-29T09:18:10;5.35;;;1.92;;
46493;SDS011;53214;49.314;6.280;2022-07-29T09:20:55;4.85;;;1.73;;
46493;SDS011;53214;49.314;6.280;2022-07-29T09:23:41;5.18;;;1.70;;
46493;SDS011;53214;49.314;6.280;2022-07-29T09:26:27;4.00;;;1.70;;
46493;SDS011;53214;49.314;6.280;2022-07-29T09:28:56;5.43;;;1.80;;
46493;SDS011;53214;49.314;6.280;2022-07-29T09:31:43;5.22;;;1.63;;
46493;SDS011;53214;49.314;6.280;2022-07-29T09:34:12;5.40;;;1.80;;
46493;SDS011;53214;49.314;6.280;2022-07-29T09:39:07;5.97;;;1.80;;
46493;SDS011;53214;49.314;6.280;2022-07-29T09:41:48;8.00;;;1.58;;
46493;SDS011;53214;49.314;6.280;2022-07-29T09:44:22;5.75;;;1.80;;
46493;SDS011;53214;49.314;6.280;2022-07-29T09:46:57;4.78;;;1.65;;
46493;SDS011;53214;49.314;6.280;2022-07-29T09:49:32;4.38;;;1.50;;
46493;SDS011;53214;49.314;6.280;2022-07-29T09:52:03;5.35;;;1.80;;
46493;SDS011;53214;49.314;6.280;2022-07-29T09:54:32;3.83;;;1.60;;
46493;SDS011;53214;49.314;6.280;2022-07-29T09:57:06;4.30;;;1.30;;
46493;SDS011;53214;49.314;6.280;2022-07-29T09:59:38;8.68;;;1.88;;
46493;SDS011;53214;49.314;6.280;2022-07-29T10:02:15;5.00;;;1.48;;
46493;SDS011;53214;49.314;6.280;2022-07-29T10:04:49;5.10;;;1.60;;
46493;SDS011;53214;49.314;6.280;2022-07-29T10:07:16;5.35;;;1.55;;
46493;SDS011;53214;49.314;6.280;2022-07-29T10:09:49;8.50;;;1.73;;
46493;SDS011;53214;49.314;6.280;2022-07-29T10:12:20;5.60;;;1.60;;
46493;SDS011;53214;49.314;6.280;2022-07-29T10:14:48;8.65;;;1.85;;
46493;SDS011;53214;49.314;6.280;2022-07-29T10:17:16;7.35;;;2.75;;
46493;SDS011;53214;49.314;6.280;2022-07-29T10:19:45;6.80;;;2.50;;
46493;SDS011;53214;49.314;6.280;2022-07-29T10:22:13;4.55;;;2.28;;
46493;SDS011;53214;49.314;6.280;2022-07-29T10:24:40;5.45;;;1.98;;
46493;SDS011;53214;49.314;6.280;2022-07-29T10:27:07;5.82;;;2.00;;
46493;SDS011;53214;49.314;6.280;2022-07-29T10:29:35;6.32;;;2.53;;
46493;SDS011;53214;49.314;6.280;2022-07-29T10:32:07;4.30;;;1.80;;
46493;SDS011;53214;49.314;6.280;2022-07-29T10:34:50;5.05;;;2.10;;
46493;SDS011;53214;49.314;6.280;2022-07-29T10:40:41;4.95;;;1.73;;
46493;SDS011;53214;49.314;6.280;2022-07-29T10:43:51;6.38;;;1.58;;
46493;SDS011;53214;49.314;6.280;2022-07-29T10:46:24;5.32;;;1.73;;
46493;SDS011;53214;49.314;6.280;2022-07-29T10:49:05;8.13;;;2.00;;
46493;SDS011;53214;49.314;6.280;2022-07-29T10:57:14;6.72;;;1.75;;
46493;SDS011;53214;49.314;6.280;2022-07-29T11:05:18;4.72;;;1.65;;
46493;SDS011;53214;49.314;6.280;2022-07-29T11:10:46;4.45;;;1.98;;
46493;SDS011;53214;49.314;6.280;2022-07-29T11:16:30;6.80;;;1.75;;
46493;SDS011;53214;49.314;6.280;2022-07-29T11:19:31;6.00;;;1.90;;
46493;SDS011;53214;49.314;6.280;2022-07-29T11:22:00;5.53;;;1.95;;
46493;SDS011;53214;49.314;6.280;2022-07-29T11:24:28;7.13;;;1.73;;
46493;SDS011;53214;49.314;6.280;2022-07-29T11:27:16;6.40;;;1.90;;
46493;SDS011;53214;49.314;6.280;2022-07-29T11:34:49;7.13;;;2.15;;
46493;SDS011;53214;49.314;6.280;2022-07-29T11:37:44;6.90;;;1.77;;
46493;SDS011;53214;49.314;6.280;2022-07-29T11:40:22;4.82;;;1.60;;
46493;SDS011;53214;49.314;6.280;2022-07-29T11:42:50;8.95;;;1.73;;
46493;SDS011;53214;49.314;6.280;2022-07-29T11:45:21;6.82;;;1.67;;
46493;SDS011;53214;49.314;6.280;2022-07-29T11:48:14;14.38;;;3.03;;
46493;SDS011;53214;49.314;6.280;2022-07-29T11:50:57;59.65;;;6.88;;
46493;SDS011;53214;49.314;6.280;2022-07-29T11:53:24;5.53;;;1.70;;
46493;SDS011;53214;49.314;6.280;2022-07-29T11:55:57;6.88;;;1.85;;
46493;SDS011;53214;49.314;6.280;2022-07-29T11:58:25;5.45;;;2.00;;
46493;SDS011;53214;49.314;6.280;2022-07-29T12:00:54;6.95;;;1.70;;
46493;SDS011;53214;49.314;6.280;2022-07-29T12:03:24;3.53;;;1.52;;
46493;SDS011;53214;49.314;6.280;2022-07-29T12:06:00;5.45;;;1.75;;
46493;SDS011;53214;49.314;6.280;2022-07-29T12:08:28;3.33;;;1.65;;
46493;SDS011;53214;49.314;6.280;2022-07-29T12:10:56;8.13;;;1.88;;
46493;SDS011;53214;49.314;6.280;2022-07-29T12:13:23;6.63;;;3.58;;
46493;SDS011;53214;49.314;6.280;2022-07-29T12:16:03;6.10;;;1.75;;
46493;SDS011;53214;49.314;6.280;2022-07-29T12:18:30;7.00;;;1.70;;
46493;SDS011;53214;49.314;6.280;2022-07-29T12:20:58;4.53;;;1.63;;
46493;SDS011;53214;49.314;6.280;2022-07-29T12:23:32;5.93;;;1.77;;
46493;SDS011;53214;49.314;6.280;2022-07-29T12:26:04;3.70;;;1.50;;
46493;SDS011;53214;49.314;6.280;2022-07-29T12:28:38;4.50;;;1.58;;
46493;SDS011;53214;49.314;6.280;2022-07-29T12:31:05;5.50;;;1.60;;
46493;SDS011;53214;49.314;6.280;2022-07-29T12:34:00;7.38;;;1.50;;
46493;SDS011;53214;49.314;6.280;2022-07-29T12:36:27;8.27;;;2.08;;
46493;SDS011;53214;49.314;6.280;2022-07-29T12:38:54;6.35;;;2.17;;
46493;SDS011;53214;49.314;6.280;2022-07-29T12:41:21;5.35;;;1.40;;
46493;SDS011;53214;49.314;6.280;2022-07-29T12:43:55;6.53;;;1.70;;
46493;SDS011;53214;49.314;6.280;2022-07-29T12:46:22;4.72;;;1.60;;
46493;SDS011;53214;49.314;6.280;2022-07-29T12:48:52;9.52;;;1.70;;
46493;SDS011;53214;49.314;6.280;2022-07-29T12:51:28;5.85;;;1.85;;
46493;SDS011;53214;49.314;6.280;2022-07-29T12:54:05;3.95;;;1.60;;
46493;SDS011;53214;49.314;6.280;2022-07-29T12:56:40;6.50;;;1.90;;
46493;SDS011;53214;49.314;6.280;2022-07-29T12:59:21;7.05;;;1.90;;
46493;SDS011;53214;49.314;6.280;2022-07-29T13:01:51;5.25;;;1.85;;
46493;SDS011;53214;49.314;6.280;2022-07-29T13:04:29;2.60;;;1.48;;
46493;SDS011;53214;49.314;6.280;2022-07-29T13:06:57;5.43;;;1.88;;
46493;SDS011;53214;49.314;6.280;2022-07-29T13:09:43;6.82;;;1.80;;
46493;SDS011;53214;49.314;6.280;2022-07-29T13:12:13;5.97;;;1.70;;
46493;SDS011;53214;49.314;6.280;2022-07-29T13:14:47;4.38;;;1.80;;
46493;SDS011;53214;49.314;6.280;2022-07-29T13:17:20;6.88;;;1.80;;
46493;SDS011;53214;49.314;6.280;2022-07-29T13:19:50;4.17;;;1.50;;
46493;SDS011;53214;49.314;6.280;2022-07-29T13:22:34;7.53;;;2.22;;
46493;SDS011;53214;49.314;6.280;2022-07-29T13:25:01;7.97;;;1.70;;
46493;SDS011;53214;49.314;6.280;2022-07-29T13:27:29;12.68;;;2.28;;
46493;SDS011;53214;49.314;6.280;2022-07-29T13:29:59;5.47;;;1.95;;
46493;SDS011;53214;49.314;6.280;2022-07-29T13:32:28;6.05;;;1.48;;
46493;SDS011;53214;49.314;6.280;2022-07-29T13:34:56;7.07;;;2.00;;
46493;SDS011;53214;49.314;6.280;2022-07-29T13:37:26;3.13;;;1.35;;
46493;SDS011;53214;49.314;6.280;2022-07-29T13:39:56;8.15;;;1.83;;
46493;SDS011;53214;49.314;6.280;2022-07-29T13:42:23;2.45;;;1.30;;
46493;SDS011;53214;49.314;6.280;2022-07-29T13:44:51;4.45;;;1.50;;
46493;SDS011;53214;49.314;6.280;2022-07-29T13:47:21;5.45;;;1.80;;
46493;SDS011;53214;49.314;6.280;2022-07-29T13:49:58;3.55;;;1.63;;
46493;SDS011;53214;49.314;6.280;2022-07-29T13:52:32;5.00;;;1.77;;
46493;SDS011;53214;49.314;6.280;2022-07-29T13:54:59;5.45;;;1.48;;
46493;SDS011;53214;49.314;6.280;2022-07-29T13:57:26;5.57;;;1.48;;
46493;SDS011;53214;49.314;6.280;2022-07-29T13:59:53;5.68;;;1.48;;
46493;SDS011;53214;49.314;6.280;2022-07-29T14:02:21;3.53;;;1.20;;
46493;SDS011;53214;49.314;6.280;2022-07-29T14:04:51;4.55;;;1.50;;
46493;SDS011;53214;49.314;6.280;2022-07-29T14:07:19;5.15;;;1.85;;
46493;SDS011;53214;49.314;6.280;2022-07-29T14:09:47;3.95;;;1.48;;
46493;SDS011;53214;49.314;6.280;2022-07-29T14:12:14;11.07;;;1.65;;
46493;SDS011;53214;49.314;6.280;2022-07-29T14:14:41;5.40;;;1.45;;
46493;SDS011;53214;49.314;6.280;2022-07-29T14:17:08;3.83;;;1.58;;
46493;SDS011;53214;49.314;6.280;2022-07-29T14:19:35;4.20;;;1.50;;
46493;SDS011;53214;49.314;6.280;2022-07-29T14:22:05;5.82;;;1.50;;
46493;SDS011;53214;49.314;6.280;2022-07-29T14:24:34;4.13;;;1.73;;
46493;SDS011;53214;49.314;6.280;2022-07-29T14:27:05;4.45;;;1.90;;
46493;SDS011;53214;49.314;6.280;2022-07-29T14:29:33;6.57;;;2.72;;
46493;SDS011;53214;49.314;6.280;2022-07-29T14:32:04;4.50;;;1.98;;
46493;SDS011;53214;49.314;6.280;2022-07-29T14:34:33;5.80;;;2.30;;
46493;SDS011;53214;49.314;6.280;2022-07-29T14:37:00;6.88;;;2.22;;
46493;SDS011;53214;49.314;6.280;2022-07-29T14:39:29;4.43;;;1.63;;
46493;SDS011;53214;49.314;6.280;2022-07-29T14:41:57;4.00;;;1.80;;
46493;SDS011;53214;49.314;6.280;2022-07-29T14:44:25;7.10;;;1.95;;
46493;SDS011;53214;49.314;6.280;2022-07-29T14:47:00;5.85;;;1.73;;
46493;SDS011;53214;49.314;6.280;2022-07-29T14:49:33;4.93;;;1.50;;
46493;SDS011;53214;49.314;6.280;2022-07-29T14:52:00;3.05;;;1.50;;
46493;SDS011;53214;49.314;6.280;2022-07-29T14:54:27;5.38;;;1.65;;
46493;SDS011;53214;49.314;6.280;2022-07-29T14:56:54;7.32;;;1.77;;
46493;SDS011;53214;49.314;6.280;2022-07-29T14:59:24;4.45;;;1.40;;
46493;SDS011;53214;49.314;6.280;2022-07-29T15:01:52;6.38;;;1.60;;
46493;SDS011;53214;49.314;6.280;2022-07-29T15:04:19;5.40;;;1.80;;
46493;SDS011;53214;49.314;6.280;2022-07-29T15:06:47;5.45;;;1.90;;
46493;SDS011;53214;49.314;6.280;2022-07-29T15:09:14;4.55;;;1.60;;
46493;SDS011;53214;49.314;6.280;2022-07-29T15:11:41;6.05;;;1.75;;
46493;SDS011;53214;49.314;6.280;2022-07-29T15:14:08;10.35;;;2.13;;
46493;SDS011;53214;49.314;6.280;2022-07-29T15:16:38;5.05;;;1.70;;
46493;SDS011;53214;49.314;6.280;2022-07-29T15:19:09;7.50;;;1.70;;
46493;SDS011;53214;49.314;6.280;2022-07-29T15:21:36;3.17;;;1.10;;
46493;SDS011;53214;49.314;6.280;2022-07-29T15:24:14;5.20;;;1.77;;
46493;SDS011;53214;49.314;6.280;2022-07-29T15:26:42;5.22;;;1.50;;
46493;SDS011;53214;49.314;6.280;2022-07-29T15:29:09;4.78;;;1.50;;
46493;SDS011;53214;49.314;6.280;2022-07-29T15:31:36;2.95;;;1.65;;
46493;SDS011;53214;49.314;6.280;2022-07-29T15:34:03;3.75;;;1.42;;
46493;SDS011;53214;49.314;6.280;2022-07-29T15:36:31;5.35;;;1.48;;
46493;SDS011;53214;49.314;6.280;2022-07-29T15:39:19;6.82;;;1.70;;
46493;SDS011;53214;49.314;6.280;2022-07-29T15:41:47;5.68;;;1.58;;
46493;SDS011;53214;49.314;6.280;2022-07-29T15:44:14;4.65;;;1.60;;
46493;SDS011;53214;49.314;6.280;2022-07-29T15:46:41;6.53;;;1.70;;
46493;SDS011;53214;49.314;6.280;2022-07-29T15:49:28;9.25;;;1.58;;
46493;SDS011;53214;49.314;6.280;2022-07-29T15:52:17;6.00;;;1.60;;